KLCK

Rickenbacker International Airport

Columbus, Ohio, USA
METAR KLCK 161435Z AUTO 22014G19KT 10SM OVC100 01/M04 A3006 RMK AO2 T00141038
Observed Flight Rules
Dec-16 @ 14:35 UTC (18 minutes ago) Visual Flight Rules
Wind Visibility Clouds
220° at 14 knots
 Gusting to 19 knots
10 miles
  • Overcast at 10,000' AGL
Temperatures Readings
Current 1°C / 34°F
Dewpoint -4°C / 25°F
Humidity 70%
Altimeter 30.06" Hg
Pressure 1018 hPa
Elevation 227
METAR KLCK 161435Z AUTO 22014G19KT 10SM OVC100 01/M04 A3006 RMK AO2 T00141038
Observed Flight Rules
Dec-16 @ 14:35 UTC
(18 minutes ago)
VFR
Wind Visibility
220° at 14 knots
 Gusting to 19 knots
10 miles
Clouds
  • Overcast at 10,000' AGL
Temperature Dewpoint
1°C / 34°F -4°C / 25°F
Humidity Altimeter Pressure
70% 30.06" Hg 1018 hPa